sensor_id;sensor_type;location;lat;lon;timestamp;P1;durP1;ratioP1;P2;durP2;ratioP2
20020;SDS011;10171;42.694;23.318;2023-07-13T00:01:19;15.15;;;8.20;;
20020;SDS011;10171;42.694;23.318;2023-07-13T00:03:44;12.90;;;7.65;;
20020;SDS011;10171;42.694;23.318;2023-07-13T00:06:09;12.65;;;7.28;;
20020;SDS011;10171;42.694;23.318;2023-07-13T00:08:35;12.88;;;7.20;;
20020;SDS011;10171;42.694;23.318;2023-07-13T00:11:01;16.10;;;7.82;;
20020;SDS011;10171;42.694;23.318;2023-07-13T00:13:26;12.93;;;7.97;;
20020;SDS011;10171;42.694;23.318;2023-07-13T00:15:52;13.95;;;8.05;;
20020;SDS011;10171;42.694;23.318;2023-07-13T00:18:18;13.18;;;7.97;;
20020;SDS011;10171;42.694;23.318;2023-07-13T00:20:44;14.10;;;7.82;;
20020;SDS011;10171;42.694;23.318;2023-07-13T00:23:09;11.80;;;7.60;;
20020;SDS011;10171;42.694;23.318;2023-07-13T00:25:34;9.02;;;6.85;;
20020;SDS011;10171;42.694;23.318;2023-07-13T00:28:00;12.60;;;7.38;;
20020;SDS011;10171;42.694;23.318;2023-07-13T00:30:25;11.02;;;7.22;;
20020;SDS011;10171;42.694;23.318;2023-07-13T00:32:51;8.80;;;7.13;;
20020;SDS011;10171;42.694;23.318;2023-07-13T00:35:16;9.20;;;7.03;;
20020;SDS011;10171;42.694;23.318;2023-07-13T00:37:42;14.40;;;8.38;;
20020;SDS011;10171;42.694;23.318;2023-07-13T00:40:09;9.43;;;7.00;;
20020;SDS011;10171;42.694;23.318;2023-07-13T00:42:34;14.07;;;7.43;;
20020;SDS011;10171;42.694;23.318;2023-07-13T00:45:01;9.38;;;7.63;;
20020;SDS011;10171;42.694;23.318;2023-07-13T00:47:52;7.60;;;6.40;;
20020;SDS011;10171;42.694;23.318;2023-07-13T00:50:17;8.80;;;7.20;;
20020;SDS011;10171;42.694;23.318;2023-07-13T00:52:45;11.93;;;7.43;;
20020;SDS011;10171;42.694;23.318;2023-07-13T00:55:13;10.32;;;7.18;;
20020;SDS011;10171;42.694;23.318;2023-07-13T00:57:39;10.50;;;7.05;;
20020;SDS011;10171;42.694;23.318;2023-07-13T01:00:05;10.52;;;7.57;;
20020;SDS011;10171;42.694;23.318;2023-07-13T01:02:34;9.18;;;6.90;;
20020;SDS011;10171;42.694;23.318;2023-07-13T01:05:09;9.02;;;7.38;;
20020;SDS011;10171;42.694;23.318;2023-07-13T01:07:34;13.00;;;7.75;;
20020;SDS011;10171;42.694;23.318;2023-07-13T01:09:59;9.85;;;7.10;;
20020;SDS011;10171;42.694;23.318;2023-07-13T01:12:25;10.95;;;7.70;;
20020;SDS011;10171;42.694;23.318;2023-07-13T01:14:56;12.85;;;7.85;;
20020;SDS011;10171;42.694;23.318;2023-07-13T01:17:21;10.80;;;6.72;;
20020;SDS011;10171;42.694;23.318;2023-07-13T01:19:47;8.95;;;7.40;;
20020;SDS011;10171;42.694;23.318;2023-07-13T01:22:13;8.80;;;6.75;;
20020;SDS011;10171;42.694;23.318;2023-07-13T01:24:39;11.55;;;7.50;;
20020;SDS011;10171;42.694;23.318;2023-07-13T01:27:05;11.25;;;7.32;;
20020;SDS011;10171;42.694;23.318;2023-07-13T01:29:31;11.23;;;7.60;;
20020;SDS011;10171;42.694;23.318;2023-07-13T01:31:58;10.63;;;7.90;;
20020;SDS011;10171;42.694;23.318;2023-07-13T01:34:24;9.57;;;7.07;;
20020;SDS011;10171;42.694;23.318;2023-07-13T01:36:49;9.38;;;7.63;;
20020;SDS011;10171;42.694;23.318;2023-07-13T01:39:14;14.00;;;7.75;;
20020;SDS011;10171;42.694;23.318;2023-07-13T01:41:40;12.80;;;7.13;;
20020;SDS011;10171;42.694;23.318;2023-07-13T01:44:06;8.65;;;6.93;;
20020;SDS011;10171;42.694;23.318;2023-07-13T01:46:31;9.25;;;7.05;;
20020;SDS011;10171;42.694;23.318;2023-07-13T01:48:56;11.82;;;8.05;;
20020;SDS011;10171;42.694;23.318;2023-07-13T01:51:22;9.95;;;7.88;;
20020;SDS011;10171;42.694;23.318;2023-07-13T01:53:47;9.07;;;7.10;;
20020;SDS011;10171;42.694;23.318;2023-07-13T01:56:12;10.50;;;7.40;;
20020;SDS011;10171;42.694;23.318;2023-07-13T01:58:40;10.77;;;7.13;;
20020;SDS011;10171;42.694;23.318;2023-07-13T02:01:06;9.07;;;7.15;;
20020;SDS011;10171;42.694;23.318;2023-07-13T02:03:31;12.38;;;7.35;;
20020;SDS011;10171;42.694;23.318;2023-07-13T02:05:56;9.38;;;6.82;;
20020;SDS011;10171;42.694;23.318;2023-07-13T02:08:22;11.13;;;7.80;;
20020;SDS011;10171;42.694;23.318;2023-07-13T02:10:47;9.50;;;7.80;;
20020;SDS011;10171;42.694;23.318;2023-07-13T02:13:12;9.95;;;8.43;;
20020;SDS011;10171;42.694;23.318;2023-07-13T02:15:39;9.70;;;8.70;;
20020;SDS011;10171;42.694;23.318;2023-07-13T02:18:05;10.85;;;8.02;;
20020;SDS011;10171;42.694;23.318;2023-07-13T02:20:30;10.23;;;8.50;;
20020;SDS011;10171;42.694;23.318;2023-07-13T02:22:55;11.82;;;8.48;;
20020;SDS011;10171;42.694;23.318;2023-07-13T02:25:21;12.32;;;7.65;;
20020;SDS011;10171;42.694;23.318;2023-07-13T02:27:47;10.68;;;8.75;;
20020;SDS011;10171;42.694;23.318;2023-07-13T02:30:12;13.80;;;8.82;;
20020;SDS011;10171;42.694;23.318;2023-07-13T02:32:37;12.90;;;8.60;;
20020;SDS011;10171;42.694;23.318;2023-07-13T02:35:03;10.10;;;8.43;;
20020;SDS011;10171;42.694;23.318;2023-07-13T02:37:29;12.00;;;9.30;;
20020;SDS011;10171;42.694;23.318;2023-07-13T02:39:54;9.98;;;8.30;;
20020;SDS011;10171;42.694;23.318;2023-07-13T02:42:20;12.55;;;9.48;;
20020;SDS011;10171;42.694;23.318;2023-07-13T02:44:46;16.13;;;10.18;;
20020;SDS011;10171;42.694;23.318;2023-07-13T02:47:11;13.07;;;8.23;;
20020;SDS011;10171;42.694;23.318;2023-07-13T02:49:38;12.65;;;9.05;;
20020;SDS011;10171;42.694;23.318;2023-07-13T02:52:03;12.80;;;9.57;;
20020;SDS011;10171;42.694;23.318;2023-07-13T02:54:29;12.60;;;9.15;;
20020;SDS011;10171;42.694;23.318;2023-07-13T02:56:54;12.95;;;9.13;;
20020;SDS011;10171;42.694;23.318;2023-07-13T02:59:19;13.07;;;8.65;;
20020;SDS011;10171;42.694;23.318;2023-07-13T03:01:45;12.30;;;8.77;;
20020;SDS011;10171;42.694;23.318;2023-07-13T03:04:10;12.95;;;8.75;;
20020;SDS011;10171;42.694;23.318;2023-07-13T03:06:35;11.20;;;8.48;;
20020;SDS011;10171;42.694;23.318;2023-07-13T03:09:01;15.93;;;8.52;;
20020;SDS011;10171;42.694;23.318;2023-07-13T03:11:26;12.98;;;8.45;;
20020;SDS011;10171;42.694;23.318;2023-07-13T03:13:51;13.52;;;8.18;;
20020;SDS011;10171;42.694;23.318;2023-07-13T03:16:16;13.18;;;8.30;;
20020;SDS011;10171;42.694;23.318;2023-07-13T03:18:42;14.00;;;8.98;;
20020;SDS011;10171;42.694;23.318;2023-07-13T03:21:08;17.35;;;9.73;;
20020;SDS011;10171;42.694;23.318;2023-07-13T03:23:33;14.80;;;10.07;;
20020;SDS011;10171;42.694;23.318;2023-07-13T03:26:06;15.02;;;10.70;;
20020;SDS011;10171;42.694;23.318;2023-07-13T03:28:32;14.90;;;10.40;;
20020;SDS011;10171;42.694;23.318;2023-07-13T03:31:05;15.05;;;10.82;;
20020;SDS011;10171;42.694;23.318;2023-07-13T03:33:31;18.73;;;11.25;;
20020;SDS011;10171;42.694;23.318;2023-07-13T03:35:56;18.80;;;11.35;;
20020;SDS011;10171;42.694;23.318;2023-07-13T03:38:22;16.83;;;12.40;;
20020;SDS011;10171;42.694;23.318;2023-07-13T03:40:48;19.17;;;12.60;;
20020;SDS011;10171;42.694;23.318;2023-07-13T03:43:13;14.85;;;11.40;;
20020;SDS011;10171;42.694;23.318;2023-07-13T03:45:39;14.80;;;10.88;;
20020;SDS011;10171;42.694;23.318;2023-07-13T03:48:04;12.30;;;9.55;;
20020;SDS011;10171;42.694;23.318;2023-07-13T03:50:30;13.60;;;10.32;;
20020;SDS011;10171;42.694;23.318;2023-07-13T03:52:56;13.48;;;10.63;;
20020;SDS011;10171;42.694;23.318;2023-07-13T03:55:22;13.85;;;9.50;;
20020;SDS011;10171;42.694;23.318;2023-07-13T03:57:53;11.13;;;8.98;;
20020;SDS011;10171;42.694;23.318;2023-07-13T04:00:19;11.18;;;9.45;;
20020;SDS011;10171;42.694;23.318;2023-07-13T04:02:44;14.52;;;8.82;;
20020;SDS011;10171;42.694;23.318;2023-07-13T04:05:11;11.90;;;8.73;;
20020;SDS011;10171;42.694;23.318;2023-07-13T04:07:37;12.15;;;9.40;;
20020;SDS011;10171;42.694;23.318;2023-07-13T04:10:02;10.35;;;8.23;;
20020;SDS011;10171;42.694;23.318;2023-07-13T04:12:28;11.75;;;8.85;;
20020;SDS011;10171;42.694;23.318;2023-07-13T04:14:53;11.80;;;9.55;;
20020;SDS011;10171;42.694;23.318;2023-07-13T04:17:19;11.70;;;9.40;;
20020;SDS011;10171;42.694;23.318;2023-07-13T04:19:44;14.55;;;10.02;;
20020;SDS011;10171;42.694;23.318;2023-07-13T04:22:09;15.57;;;10.80;;
20020;SDS011;10171;42.694;23.318;2023-07-13T04:24:35;14.85;;;10.05;;
20020;SDS011;10171;42.694;23.318;2023-07-13T04:27:00;14.02;;;9.68;;
20020;SDS011;10171;42.694;23.318;2023-07-13T04:29:28;15.65;;;10.25;;
20020;SDS011;10171;42.694;23.318;2023-07-13T04:31:53;11.93;;;9.65;;
20020;SDS011;10171;42.694;23.318;2023-07-13T04:34:18;11.95;;;9.32;;
20020;SDS011;10171;42.694;23.318;2023-07-13T04:36:44;12.77;;;9.75;;
20020;SDS011;10171;42.694;23.318;2023-07-13T04:39:09;16.58;;;9.57;;
20020;SDS011;10171;42.694;23.318;2023-07-13T04:41:34;14.98;;;10.18;;
20020;SDS011;10171;42.694;23.318;2023-07-13T04:44:00;13.65;;;10.02;;
20020;SDS011;10171;42.694;23.318;2023-07-13T04:46:25;12.48;;;9.98;;
20020;SDS011;10171;42.694;23.318;2023-07-13T04:48:50;15.15;;;10.27;;
20020;SDS011;10171;42.694;23.318;2023-07-13T04:51:18;13.05;;;9.90;;
20020;SDS011;10171;42.694;23.318;2023-07-13T04:53:43;14.93;;;10.25;;
20020;SDS011;10171;42.694;23.318;2023-07-13T04:56:08;11.60;;;9.77;;
20020;SDS011;10171;42.694;23.318;2023-07-13T04:58:34;14.75;;;10.02;;
20020;SDS011;10171;42.694;23.318;2023-07-13T05:01:03;16.77;;;10.23;;
20020;SDS011;10171;42.694;23.318;2023-07-13T05:03:28;16.63;;;10.70;;
20020;SDS011;10171;42.694;23.318;2023-07-13T05:05:54;17.70;;;11.05;;
20020;SDS011;10171;42.694;23.318;2023-07-13T05:08:20;17.23;;;11.13;;
20020;SDS011;10171;42.694;23.318;2023-07-13T05:10:45;19.63;;;11.10;;
20020;SDS011;10171;42.694;23.318;2023-07-13T05:13:11;18.48;;;11.93;;
20020;SDS011;10171;42.694;23.318;2023-07-13T05:15:36;17.15;;;11.70;;
20020;SDS011;10171;42.694;23.318;2023-07-13T05:18:01;14.32;;;10.80;;
20020;SDS011;10171;42.694;23.318;2023-07-13T05:20:26;14.50;;;11.35;;
20020;SDS011;10171;42.694;23.318;2023-07-13T05:22:52;19.25;;;10.95;;
20020;SDS011;10171;42.694;23.318;2023-07-13T05:25:17;17.40;;;11.68;;
20020;SDS011;10171;42.694;23.318;2023-07-13T05:27:43;20.95;;;12.25;;
20020;SDS011;10171;42.694;23.318;2023-07-13T05:30:10;15.00;;;11.38;;
20020;SDS011;10171;42.694;23.318;2023-07-13T05:32:36;15.93;;;11.50;;
20020;SDS011;10171;42.694;23.318;2023-07-13T05:35:02;16.15;;;12.02;;
20020;SDS011;10171;42.694;23.318;2023-07-13T05:37:27;17.83;;;12.05;;
20020;SDS011;10171;42.694;23.318;2023-07-13T05:39:53;13.63;;;10.43;;
20020;SDS011;10171;42.694;23.318;2023-07-13T05:42:18;15.80;;;12.23;;
20020;SDS011;10171;42.694;23.318;2023-07-13T05:44:43;19.98;;;12.27;;
20020;SDS011;10171;42.694;23.318;2023-07-13T05:47:08;16.13;;;12.13;;
20020;SDS011;10171;42.694;23.318;2023-07-13T05:49:34;15.48;;;10.82;;
20020;SDS011;10171;42.694;23.318;2023-07-13T05:52:00;19.55;;;11.30;;
20020;SDS011;10171;42.694;23.318;2023-07-13T05:54:26;15.82;;;11.35;;
20020;SDS011;10171;42.694;23.318;2023-07-13T05:56:51;16.65;;;11.80;;
20020;SDS011;10171;42.694;23.318;2023-07-13T05:59:17;15.23;;;11.23;;
20020;SDS011;10171;42.694;23.318;2023-07-13T06:01:42;16.23;;;11.63;;
20020;SDS011;10171;42.694;23.318;2023-07-13T06:04:08;16.95;;;12.50;;
20020;SDS011;10171;42.694;23.318;2023-07-13T06:06:33;21.38;;;11.13;;
20020;SDS011;10171;42.694;23.318;2023-07-13T06:08:59;14.40;;;12.27;;
20020;SDS011;10171;42.694;23.318;2023-07-13T06:11:24;17.02;;;10.40;;
20020;SDS011;10171;42.694;23.318;2023-07-13T06:13:51;17.90;;;11.77;;
20020;SDS011;10171;42.694;23.318;2023-07-13T06:16:16;17.55;;;12.40;;
20020;SDS011;10171;42.694;23.318;2023-07-13T06:18:42;18.55;;;11.13;;
20020;SDS011;10171;42.694;23.318;2023-07-13T06:21:11;15.27;;;11.10;;
20020;SDS011;10171;42.694;23.318;2023-07-13T06:23:37;17.77;;;11.63;;
20020;SDS011;10171;42.694;23.318;2023-07-13T06:26:02;19.52;;;11.25;;
20020;SDS011;10171;42.694;23.318;2023-07-13T06:28:28;13.90;;;10.10;;
20020;SDS011;10171;42.694;23.318;2023-07-13T06:30:53;14.00;;;10.20;;
20020;SDS011;10171;42.694;23.318;2023-07-13T06:33:18;16.40;;;10.60;;
20020;SDS011;10171;42.694;23.318;2023-07-13T06:35:44;16.20;;;11.15;;
20020;SDS011;10171;42.694;23.318;2023-07-13T06:38:09;12.75;;;10.15;;
20020;SDS011;10171;42.694;23.318;2023-07-13T06:40:34;12.18;;;10.15;;
20020;SDS011;10171;42.694;23.318;2023-07-13T06:42:59;18.85;;;11.00;;
20020;SDS011;10171;42.694;23.318;2023-07-13T06:45:25;20.02;;;10.98;;
20020;SDS011;10171;42.694;23.318;2023-07-13T06:47:50;15.65;;;9.85;;
20020;SDS011;10171;42.694;23.318;2023-07-13T06:50:16;17.60;;;10.30;;
20020;SDS011;10171;42.694;23.318;2023-07-13T06:52:41;17.42;;;11.13;;
20020;SDS011;10171;42.694;23.318;2023-07-13T06:55:07;16.75;;;11.15;;
20020;SDS011;10171;42.694;23.318;2023-07-13T06:57:33;17.38;;;9.27;;
20020;SDS011;10171;42.694;23.318;2023-07-13T06:59:58;18.10;;;10.60;;
20020;SDS011;10171;42.694;23.318;2023-07-13T07:02:24;16.13;;;10.52;;
20020;SDS011;10171;42.694;23.318;2023-07-13T07:04:49;14.60;;;9.70;;
20020;SDS011;10171;42.694;23.318;2023-07-13T07:07:15;16.92;;;10.05;;
20020;SDS011;10171;42.694;23.318;2023-07-13T07:09:40;16.85;;;11.00;;
20020;SDS011;10171;42.694;23.318;2023-07-13T07:12:06;15.10;;;11.13;;
20020;SDS011;10171;42.694;23.318;2023-07-13T07:14:31;19.05;;;11.98;;
20020;SDS011;10171;42.694;23.318;2023-07-13T07:16:57;16.83;;;10.27;;
20020;SDS011;10171;42.694;23.318;2023-07-13T07:19:23;15.90;;;10.00;;
20020;SDS011;10171;42.694;23.318;2023-07-13T07:21:49;16.50;;;11.82;;
20020;SDS011;10171;42.694;23.318;2023-07-13T07:24:14;19.73;;;11.32;;
20020;SDS011;10171;42.694;23.318;2023-07-13T07:26:40;14.40;;;9.88;;
20020;SDS011;10171;42.694;23.318;2023-07-13T07:29:06;14.32;;;10.02;;
20020;SDS011;10171;42.694;23.318;2023-07-13T07:31:31;14.65;;;11.05;;
20020;SDS011;10171;42.694;23.318;2023-07-13T07:33:57;19.50;;;11.38;;
20020;SDS011;10171;42.694;23.318;2023-07-13T07:36:22;14.85;;;10.43;;
20020;SDS011;10171;42.694;23.318;2023-07-13T07:38:47;18.73;;;10.40;;
20020;SDS011;10171;42.694;23.318;2023-07-13T07:41:13;14.77;;;9.95;;
20020;SDS011;10171;42.694;23.318;2023-07-13T07:43:38;12.68;;;9.80;;
20020;SDS011;10171;42.694;23.318;2023-07-13T07:46:03;14.13;;;10.73;;
20020;SDS011;10171;42.694;23.318;2023-07-13T07:48:29;14.73;;;10.15;;
20020;SDS011;10171;42.694;23.318;2023-07-13T07:50:55;11.70;;;9.63;;
20020;SDS011;10171;42.694;23.318;2023-07-13T07:53:20;11.98;;;8.88;;
20020;SDS011;10171;42.694;23.318;2023-07-13T07:55:46;19.80;;;10.68;;
20020;SDS011;10171;42.694;23.318;2023-07-13T07:58:12;14.05;;;9.60;;
20020;SDS011;10171;42.694;23.318;2023-07-13T08:00:37;12.80;;;9.18;;
20020;SDS011;10171;42.694;23.318;2023-07-13T08:03:03;13.10;;;9.23;;
20020;SDS011;10171;42.694;23.318;2023-07-13T08:05:28;14.48;;;9.90;;
20020;SDS011;10171;42.694;23.318;2023-07-13T08:07:54;11.82;;;9.57;;
20020;SDS011;10171;42.694;23.318;2023-07-13T08:10:19;13.68;;;10.38;;
20020;SDS011;10171;42.694;23.318;2023-07-13T08:12:45;15.55;;;10.43;;
20020;SDS011;10171;42.694;23.318;2023-07-13T08:15:13;18.38;;;9.02;;
20020;SDS011;10171;42.694;23.318;2023-07-13T08:17:39;19.67;;;9.48;;
20020;SDS011;10171;42.694;23.318;2023-07-13T08:20:04;12.15;;;10.00;;
20020;SDS011;10171;42.694;23.318;2023-07-13T08:22:29;16.23;;;9.15;;
20020;SDS011;10171;42.694;23.318;2023-07-13T08:24:55;15.35;;;10.30;;
20020;SDS011;10171;42.694;23.318;2023-07-13T08:27:21;12.73;;;9.65;;
20020;SDS011;10171;42.694;23.318;2023-07-13T08:29:47;10.95;;;8.60;;
20020;SDS011;10171;42.694;23.318;2023-07-13T08:32:13;12.60;;;9.27;;
20020;SDS011;10171;42.694;23.318;2023-07-13T08:34:38;12.02;;;9.02;;
20020;SDS011;10171;42.694;23.318;2023-07-13T08:37:04;11.55;;;8.50;;
20020;SDS011;10171;42.694;23.318;2023-07-13T08:39:30;10.50;;;8.23;;
20020;SDS011;10171;42.694;23.318;2023-07-13T08:41:58;12.60;;;9.20;;
20020;SDS011;10171;42.694;23.318;2023-07-13T08:45:13;12.00;;;9.45;;
20020;SDS011;10171;42.694;23.318;2023-07-13T08:47:14;15.05;;;9.43;;
20020;SDS011;10171;42.694;23.318;2023-07-13T08:49:40;14.85;;;9.57;;
20020;SDS011;10171;42.694;23.318;2023-07-13T08:52:12;14.80;;;9.60;;
20020;SDS011;10171;42.694;23.318;2023-07-13T08:54:42;14.75;;;9.57;;
20020;SDS011;10171;42.694;23.318;2023-07-13T08:57:15;12.63;;;9.43;;
20020;SDS011;10171;42.694;23.318;2023-07-13T08:59:40;14.10;;;9.43;;
20020;SDS011;10171;42.694;23.318;2023-07-13T09:04:41;12.68;;;9.60;;
20020;SDS011;10171;42.694;23.318;2023-07-13T09:17:12;11.70;;;10.07;;
20020;SDS011;10171;42.694;23.318;2023-07-13T09:19:42;16.35;;;10.98;;
20020;SDS011;10171;42.694;23.318;2023-07-13T09:22:11;15.32;;;11.02;;
20020;SDS011;10171;42.694;23.318;2023-07-13T09:24:46;34.05;;;16.58;;
20020;SDS011;10171;42.694;23.318;2023-07-13T09:27:23;21.63;;;12.73;;
20020;SDS011;10171;42.694;23.318;2023-07-13T09:29:50;16.88;;;11.05;;
20020;SDS011;10171;42.694;23.318;2023-07-13T09:32:20;31.55;;;15.85;;
20020;SDS011;10171;42.694;23.318;2023-07-13T09:34:53;15.30;;;10.10;;
20020;SDS011;10171;42.694;23.318;2023-07-13T09:37:20;14.25;;;10.57;;
20020;SDS011;10171;42.694;23.318;2023-07-13T09:39:46;18.60;;;9.55;;
20020;SDS011;10171;42.694;23.318;2023-07-13T09:42:16;14.38;;;9.65;;
20020;SDS011;10171;42.694;23.318;2023-07-13T09:44:50;12.75;;;10.25;;
20020;SDS011;10171;42.694;23.318;2023-07-13T09:47:16;13.10;;;10.40;;
20020;SDS011;10171;42.694;23.318;2023-07-13T09:49:44;16.38;;;10.38;;
20020;SDS011;10171;42.694;23.318;2023-07-13T09:52:14;14.82;;;9.75;;
20020;SDS011;10171;42.694;23.318;2023-07-13T09:54:43;11.20;;;9.30;;
20020;SDS011;10171;42.694;23.318;2023-07-13T09:57:13;15.30;;;11.02;;
20020;SDS011;10171;42.694;23.318;2023-07-13T09:59:46;19.50;;;12.40;;
20020;SDS011;10171;42.694;23.318;2023-07-13T10:04:59;16.02;;;10.32;;
20020;SDS011;10171;42.694;23.318;2023-07-13T10:07:25;15.60;;;11.45;;
20020;SDS011;10171;42.694;23.318;2023-07-13T10:09:53;12.60;;;9.10;;
20020;SDS011;10171;42.694;23.318;2023-07-13T10:12:20;10.10;;;6.50;;
20020;SDS011;10171;42.694;23.318;2023-07-13T10:14:45;9.43;;;5.93;;
20020;SDS011;10171;42.694;23.318;2023-07-13T10:17:13;9.13;;;5.82;;
20020;SDS011;10171;42.694;23.318;2023-07-13T10:19:39;8.98;;;6.03;;
20020;SDS011;10171;42.694;23.318;2023-07-13T10:24:57;14.05;;;5.50;;
20020;SDS011;10171;42.694;23.318;2023-07-13T10:27:25;7.18;;;5.18;;
20020;SDS011;10171;42.694;23.318;2023-07-13T10:30:13;9.00;;;5.70;;
20020;SDS011;10171;42.694;23.318;2023-07-13T10:32:45;8.40;;;5.22;;
20020;SDS011;10171;42.694;23.318;2023-07-13T10:35:13;7.28;;;5.40;;
20020;SDS011;10171;42.694;23.318;2023-07-13T10:37:42;7.75;;;5.00;;
20020;SDS011;10171;42.694;23.318;2023-07-13T10:40:13;8.45;;;5.32;;
20020;SDS011;10171;42.694;23.318;2023-07-13T10:42:39;10.07;;;5.18;;
20020;SDS011;10171;42.694;23.318;2023-07-13T10:45:14;7.70;;;5.28;;
20020;SDS011;10171;42.694;23.318;2023-07-13T10:47:45;10.90;;;5.07;;
20020;SDS011;10171;42.694;23.318;2023-07-13T10:50:18;10.90;;;5.05;;
20020;SDS011;10171;42.694;23.318;2023-07-13T10:52:51;7.22;;;5.20;;
20020;SDS011;10171;42.694;23.318;2023-07-13T10:58:03;9.13;;;5.53;;
20020;SDS011;10171;42.694;23.318;2023-07-13T11:00:48;6.97;;;4.80;;
20020;SDS011;10171;42.694;23.318;2023-07-13T11:03:15;6.72;;;5.40;;
20020;SDS011;10171;42.694;23.318;2023-07-13T11:05:44;9.45;;;4.97;;
20020;SDS011;10171;42.694;23.318;2023-07-13T11:08:16;9.50;;;5.10;;
20020;SDS011;10171;42.694;23.318;2023-07-13T11:10:52;10.25;;;4.70;;
20020;SDS011;10171;42.694;23.318;2023-07-13T11:18:49;8.43;;;5.15;;
20020;SDS011;10171;42.694;23.318;2023-07-13T11:23:42;5.57;;;4.70;;
20020;SDS011;10171;42.694;23.318;2023-07-13T11:26:37;6.95;;;4.93;;
20020;SDS011;10171;42.694;23.318;2023-07-13T11:28:52;8.02;;;5.80;;
20020;SDS011;10171;42.694;23.318;2023-07-13T11:31:18;7.97;;;5.03;;
20020;SDS011;10171;42.694;23.318;2023-07-13T11:33:52;8.40;;;5.22;;
20020;SDS011;10171;42.694;23.318;2023-07-13T11:36:19;8.23;;;5.47;;
20020;SDS011;10171;42.694;23.318;2023-07-13T11:38:51;11.73;;;5.43;;
20020;SDS011;10171;42.694;23.318;2023-07-13T11:43:54;6.40;;;4.90;;
20020;SDS011;10171;42.694;23.318;2023-07-13T11:46:29;7.43;;;5.57;;
20020;SDS011;10171;42.694;23.318;2023-07-13T11:48:55;8.85;;;5.38;;
20020;SDS011;10171;42.694;23.318;2023-07-13T11:53:46;8.10;;;5.35;;
20020;SDS011;10171;42.694;23.318;2023-07-13T11:56:11;8.63;;;5.28;;
20020;SDS011;10171;42.694;23.318;2023-07-13T11:58:37;8.25;;;5.43;;
20020;SDS011;10171;42.694;23.318;2023-07-13T12:01:03;7.60;;;5.78;;
20020;SDS011;10171;42.694;23.318;2023-07-13T12:03:32;9.75;;;5.45;;
20020;SDS011;10171;42.694;23.318;2023-07-13T12:05:59;9.57;;;5.75;;
20020;SDS011;10171;42.694;23.318;2023-07-13T12:08:27;6.22;;;5.15;;
20020;SDS011;10171;42.694;23.318;2023-07-13T12:10:56;9.82;;;5.63;;
20020;SDS011;10171;42.694;23.318;2023-07-13T12:13:24;10.18;;;5.10;;
20020;SDS011;10171;42.694;23.318;2023-07-13T12:15:51;11.45;;;5.55;;
20020;SDS011;10171;42.694;23.318;2023-07-13T12:18:20;12.88;;;5.07;;
20020;SDS011;10171;42.694;23.318;2023-07-13T12:20:50;7.63;;;5.00;;
20020;SDS011;10171;42.694;23.318;2023-07-13T12:25:50;10.32;;;5.35;;
20020;SDS011;10171;42.694;23.318;2023-07-13T12:28:22;12.27;;;5.72;;
20020;SDS011;10171;42.694;23.318;2023-07-13T12:30:48;10.30;;;5.43;;
20020;SDS011;10171;42.694;23.318;2023-07-13T12:33:15;8.13;;;5.65;;
20020;SDS011;10171;42.694;23.318;2023-07-13T12:35:45;7.68;;;4.47;;
20020;SDS011;10171;42.694;23.318;2023-07-13T12:38:12;10.05;;;5.00;;
20020;SDS011;10171;42.694;23.318;2023-07-13T12:40:38;8.45;;;4.45;;
20020;SDS011;10171;42.694;23.318;2023-07-13T12:43:09;7.18;;;4.72;;
20020;SDS011;10171;42.694;23.318;2023-07-13T12:45:35;8.75;;;4.97;;
20020;SDS011;10171;42.694;23.318;2023-07-13T12:48:14;8.48;;;6.15;;
20020;SDS011;10171;42.694;23.318;2023-07-13T12:50:42;12.65;;;6.80;;
20020;SDS011;10171;42.694;23.318;2023-07-13T12:53:21;11.82;;;5.30;;
20020;SDS011;10171;42.694;23.318;2023-07-13T12:55:47;10.95;;;5.35;;
20020;SDS011;10171;42.694;23.318;2023-07-13T12:58:16;13.13;;;5.32;;
20020;SDS011;10171;42.694;23.318;2023-07-13T13:00:49;6.07;;;4.55;;
20020;SDS011;10171;42.694;23.318;2023-07-13T13:03:22;14.48;;;4.97;;
20020;SDS011;10171;42.694;23.318;2023-07-13T13:05:47;8.23;;;4.47;;
20020;SDS011;10171;42.694;23.318;2023-07-13T13:08:13;8.93;;;5.00;;
20020;SDS011;10171;42.694;23.318;2023-07-13T13:10:39;9.23;;;4.75;;
20020;SDS011;10171;42.694;23.318;2023-07-13T13:13:05;8.80;;;5.07;;
20020;SDS011;10171;42.694;23.318;2023-07-13T13:15:30;9.73;;;4.93;;
20020;SDS011;10171;42.694;23.318;2023-07-13T13:17:55;8.70;;;4.55;;
20020;SDS011;10171;42.694;23.318;2023-07-13T13:20:23;10.30;;;5.03;;
20020;SDS011;10171;42.694;23.318;2023-07-13T13:22:50;11.25;;;5.22;;
20020;SDS011;10171;42.694;23.318;2023-07-13T13:25:16;12.10;;;5.00;;
20020;SDS011;10171;42.694;23.318;2023-07-13T13:27:43;7.78;;;4.20;;
20020;SDS011;10171;42.694;23.318;2023-07-13T13:30:17;8.50;;;4.93;;
20020;SDS011;10171;42.694;23.318;2023-07-13T13:32:44;9.10;;;4.45;;
20020;SDS011;10171;42.694;23.318;2023-07-13T13:35:13;8.60;;;4.72;;
20020;SDS011;10171;42.694;23.318;2023-07-13T13:37:39;7.45;;;4.28;;
20020;SDS011;10171;42.694;23.318;2023-07-13T13:40:12;9.40;;;4.85;;
20020;SDS011;10171;42.694;23.318;2023-07-13T13:42:38;8.10;;;5.05;;
20020;SDS011;10171;42.694;23.318;2023-07-13T13:45:03;8.93;;;4.78;;
20020;SDS011;10171;42.694;23.318;2023-07-13T13:47:32;7.18;;;4.60;;
20020;SDS011;10171;42.694;23.318;2023-07-13T13:49:58;11.50;;;4.88;;
20020;SDS011;10171;42.694;23.318;2023-07-13T13:52:23;6.10;;;4.20;;
20020;SDS011;10171;42.694;23.318;2023-07-13T13:54:49;6.45;;;4.53;;
20020;SDS011;10171;42.694;23.318;2023-07-13T13:57:14;6.45;;;4.32;;
20020;SDS011;10171;42.694;23.318;2023-07-13T13:59:40;10.13;;;4.57;;
20020;SDS011;10171;42.694;23.318;2023-07-13T14:02:25;9.88;;;4.88;;
20020;SDS011;10171;42.694;23.318;2023-07-13T14:04:53;12.32;;;5.00;;
20020;SDS011;10171;42.694;23.318;2023-07-13T14:07:21;9.80;;;4.45;;
20020;SDS011;10171;42.694;23.318;2023-07-13T14:09:46;9.77;;;4.90;;
20020;SDS011;10171;42.694;23.318;2023-07-13T14:12:12;6.78;;;4.10;;
20020;SDS011;10171;42.694;23.318;2023-07-13T14:14:38;7.93;;;4.95;;
20020;SDS011;10171;42.694;23.318;2023-07-13T14:17:04;12.98;;;5.13;;
20020;SDS011;10171;42.694;23.318;2023-07-13T14:19:29;6.30;;;4.95;;
20020;SDS011;10171;42.694;23.318;2023-07-13T14:21:55;10.50;;;4.60;;
20020;SDS011;10171;42.694;23.318;2023-07-13T14:24:20;9.07;;;5.05;;
20020;SDS011;10171;42.694;23.318;2023-07-13T14:26:46;8.85;;;4.82;;
20020;SDS011;10171;42.694;23.318;2023-07-13T14:29:16;12.50;;;5.50;;
20020;SDS011;10171;42.694;23.318;2023-07-13T14:31:43;11.48;;;4.50;;
20020;SDS011;10171;42.694;23.318;2023-07-13T14:34:12;12.10;;;4.88;;
20020;SDS011;10171;42.694;23.318;2023-07-13T14:36:43;6.95;;;4.50;;
20020;SDS011;10171;42.694;23.318;2023-07-13T14:39:20;7.18;;;4.60;;
20020;SDS011;10171;42.694;23.318;2023-07-13T14:41:49;10.10;;;4.63;;
20020;SDS011;10171;42.694;23.318;2023-07-13T14:44:16;10.40;;;4.90;;
20020;SDS011;10171;42.694;23.318;2023-07-13T14:46:43;11.45;;;5.07;;
20020;SDS011;10171;42.694;23.318;2023-07-13T14:51:36;5.88;;;4.05;;
20020;SDS011;10171;42.694;23.318;2023-07-13T14:54:05;9.45;;;5.20;;
20020;SDS011;10171;42.694;23.318;2023-07-13T14:56:33;7.85;;;5.13;;
20020;SDS011;10171;42.694;23.318;2023-07-13T14:58:59;9.15;;;4.57;;